»·PEaware :: FDX3171 KGJT-KASE

FDX3171 :: KGJT-KASE

FLIGHT INFORMATION

Flight Status: Arrived
Operator:
Federal Express
More flights by this operator :: More flights under this callsign
Pilot: David C. (16084)
Aircraft: BEECH AIRCRAFT BEECH AIRLINER
(B190)
More flights by this aircraft type
Origin: KGJT Walker
United States
Destination: KASE Aspen-Pitkin Co/Sardy
United States
More flights between these airports :: More routes between these airports
Route: JNC7 DIRDY DBL
File this flight plan on PilotEdge
Remarks: PBN / D2 DOF / 171011 REG / FDX3171 OPR / NX RMK / TCAS SIMBRIEF
Altitude:
(Current/Filed)
21,000ft
Speed:
(Current/Filed)
257kts
Departed: 11-Oct-17 11:37 AM
Arrived: 11-Oct-17 12:11 PM
Distance/Time
Traveled:
78nm/0:34
Distance/Time
To Go:
Arrived

Flight Plot

Page will automatically refresh every two minutes.

Flight plan parsing failed; only flown route is shown


Map Options




Map Legend


Flown Route
Filed Route
Departure Airport
Arrival Airport
Navaid (VOR, NDB)
Fix

Horizontal Profiles

Position Reports

Time Latitude Longitude Heading Altitude Ground
Speed
11-Oct-17 11:12 39.122224 -108.526867 213 4836ft 0kts
11-Oct-17 11:13 39.122224 -108.526867 213 4836ft 0kts
11-Oct-17 11:14 39.122224 -108.526867 213 4836ft 0kts
11-Oct-17 11:15 39.122224 -108.526867 213 4836ft 0kts
11-Oct-17 11:16 39.122224 -108.526867 213 4836ft 0kts
11-Oct-17 11:17 39.122224 -108.526867 213 4836ft 0kts
11-Oct-17 11:18 39.122224 -108.526867 213 4836ft 0kts
11-Oct-17 11:19 39.122224 -108.526867 213 4836ft 0kts
11-Oct-17 11:20 39.122224 -108.526867 213 4836ft 0kts
11-Oct-17 11:21 39.122224 -108.526867 213 4836ft 0kts
11-Oct-17 11:22 39.122224 -108.526867 213 4836ft 0kts
11-Oct-17 11:23 39.122224 -108.526867 213 4836ft 0kts
11-Oct-17 11:24 39.122224 -108.526867 213 4836ft 0kts
11-Oct-17 11:25 39.122224 -108.526867 213 4836ft 0kts
11-Oct-17 11:26 39.122224 -108.526867 213 4836ft 0kts
11-Oct-17 11:27 39.122360 -108.526746 224 4837ft 3kts
11-Oct-17 11:28 39.122429 -108.526699 266 4837ft 0kts
11-Oct-17 11:29 39.122429 -108.526699 266 4837ft 0kts
11-Oct-17 11:30 39.122485 -108.526954 313 4837ft 7kts
11-Oct-17 11:31 39.125469 -108.529452 305 4839ft 21kts
11-Oct-17 11:32 39.130160 -108.537969 303 4820ft 36kts
11-Oct-17 11:33 39.134135 -108.544787 2 4799ft 0kts
11-Oct-17 11:34 39.134135 -108.544787 2 4799ft 0kts
11-Oct-17 11:35 39.134135 -108.544787 2 4799ft 0kts
11-Oct-17 11:36 39.134135 -108.544787 2 4799ft 0kts
11-Oct-17 11:37 39.134135 -108.544787 2 4799ft 0kts
11-Oct-17 11:38 39.134135 -108.544787 2 4799ft 0kts
11-Oct-17 11:39 39.134135 -108.544787 2 4799ft 0kts
11-Oct-17 11:40 39.134656 -108.544507 53 4800ft 10kts
11-Oct-17 11:41 39.133638 -108.541897 126 4808ft 67kts
11-Oct-17 11:42 39.112032 -108.498831 130 6361ft 167kts
11-Oct-17 11:43 39.081209 -108.522189 227 8650ft 168kts
11-Oct-17 11:44 39.073163 -108.583302 258 10717ft 178kts
11-Oct-17 11:45 39.044637 -108.591906 121 12682ft 182kts
11-Oct-17 11:46 39.044539 -108.520671 97 13994ft 218kts
11-Oct-17 11:47 39.043421 -108.433095 97 14124ft 256kts
11-Oct-17 11:48 39.048307 -108.355350 82 16605ft 203kts
11-Oct-17 11:49 39.027201 -108.295403 124 17735ft 202kts
11-Oct-17 11:50 39.011274 -108.223750 111 19266ft 216kts
11-Oct-17 11:51 39.001218 -108.146051 108 20648ft 224kts
11-Oct-17 11:52 38.991448 -108.061905 106 21215ft 260kts
11-Oct-17 11:53 38.980510 -107.964352 105 21210ft 287kts
11-Oct-17 11:54 38.968987 -107.861245 104 21206ft 295kts
11-Oct-17 11:55 38.957098 -107.756449 104 21206ft 297kts
11-Oct-17 11:56 38.945057 -107.651423 104 21212ft 297kts
11-Oct-17 11:57 38.933006 -107.547339 104 21221ft 297kts
11-Oct-17 11:58 38.976579 -107.457248 43 21238ft 316kts
11-Oct-17 11:59 39.042347 -107.378804 43 20287ft 330kts
11-Oct-17 12:00 39.105545 -107.302238 44 20263ft 302kts
11-Oct-17 12:01 39.165411 -107.229424 44 20274ft 292kts
11-Oct-17 12:02 39.224505 -107.157420 44 19937ft 303kts
11-Oct-17 12:03 39.288970 -107.078682 44 18242ft 334kts
11-Oct-17 12:04 39.353746 -107.004288 11 17043ft 268kts
11-Oct-17 12:05 39.421116 -107.006206 350 17160ft 242kts
11-Oct-17 12:06 39.488477 -107.010966 7 15507ft 273kts
11-Oct-17 12:07 39.524014 -106.933043 80 13867ft 254kts
11-Oct-17 12:08 39.493576 -106.876970 178 13974ft 183kts
11-Oct-17 12:09 39.449454 -106.889504 168 13682ft 174kts
11-Oct-17 12:10 39.399913 -106.890244 192 12623ft 184kts
11-Oct-17 12:11 39.356996 -106.895153 161 12034ft 159kts
11-Oct-17 12:13 39.317859 -106.882173 180 11291ft 154kts
11-Oct-17 12:14 39.279803 -106.878136 179 9664ft 116kts
11-Oct-17 12:15 39.249164 -106.874837 178 8284ft 108kts
11-Oct-17 12:16 39.225856 -106.869862 126 7715ft 16kts
11-Oct-17 12:17 39.225807 -106.869101 64 7717ft 0kts
11-Oct-17 12:18 39.225849 -106.868984 69 7717ft 4kts
11-Oct-17 12:19 39.222842 -106.867243 159 7744ft 13kts
11-Oct-17 12:20 39.219905 -106.865145 157 7771ft 0kts

Navigation Log

Ident Type
Flight plan parsing failed, navigation log unavailable